createdAt,value
2022-12-23T00:01:22.346Z,30.13
2022-12-23T00:03:50.336Z,30.73
2022-12-23T00:06:20.393Z,37.20
2022-12-23T00:08:48.318Z,30.27
2022-12-23T00:11:18.571Z,34.00
2022-12-23T00:14:05.770Z,34.40
2022-12-23T00:16:36.950Z,34.10
2022-12-23T00:19:05.407Z,34.37
2022-12-23T00:21:33.454Z,32.13
2022-12-23T00:24:01.412Z,30.97
2022-12-23T00:26:29.859Z,30.17
2022-12-23T00:28:59.307Z,32.40
2022-12-23T00:31:27.707Z,29.83
2022-12-23T00:33:55.730Z,30.27
2022-12-23T00:36:25.412Z,30.27
2022-12-23T00:39:11.124Z,30.77
2022-12-23T00:41:57.135Z,24.27
2022-12-23T00:44:26.536Z,25.70
2022-12-23T00:46:54.574Z,21.63
2022-12-23T00:49:40.449Z,27.67
2022-12-23T00:52:10.557Z,25.83
2022-12-23T00:54:38.579Z,27.83
2022-12-23T00:57:06.858Z,22.00
2022-12-23T00:59:36.227Z,21.53
2022-12-23T01:02:22.207Z,24.27
2022-12-23T01:05:07.754Z,21.37
2022-12-23T01:07:36.061Z,20.43
2022-12-23T01:10:04.163Z,25.37
2022-12-23T01:12:32.112Z,24.20
2022-12-23T01:15:01.389Z,23.20
2022-12-23T01:17:29.377Z,17.67
2022-12-23T01:19:57.315Z,20.47
2022-12-23T01:22:25.229Z,23.77
2022-12-23T01:24:53.107Z,24.20
2022-12-23T01:27:21.063Z,19.30
2022-12-23T01:29:48.980Z,20.13
2022-12-23T01:32:18.386Z,24.40
2022-12-23T01:34:46.396Z,18.77
2022-12-23T01:37:14.425Z,17.40
2022-12-23T01:39:42.369Z,21.07
2022-12-23T01:42:31.636Z,20.43
2022-12-23T01:45:01.101Z,20.47
2022-12-23T01:47:36.719Z,21.00
2022-12-23T01:50:10.961Z,19.63
2022-12-23T01:52:44.379Z,18.83
2022-12-23T01:55:13.741Z,17.07
2022-12-23T01:57:43.577Z,15.93
2022-12-23T02:00:30.064Z,18.23
2022-12-23T02:03:17.023Z,19.47
2022-12-23T02:05:46.787Z,19.47
2022-12-23T02:08:33.997Z,16.40
2022-12-23T02:11:33.290Z,15.43
2022-12-23T02:14:32.511Z,17.07
2022-12-23T02:17:07.922Z,14.57
2022-12-23T02:20:09.918Z,13.43
2022-12-23T02:22:58.579Z,16.93
2022-12-23T02:25:49.650Z,14.57
2022-12-23T02:28:39.559Z,15.07
2022-12-23T02:31:17.412Z,17.30
2022-12-23T02:33:53.054Z,17.13
2022-12-23T02:36:31.825Z,18.00
2022-12-23T02:39:06.727Z,16.17
2022-12-23T02:41:41.270Z,15.43
2022-12-23T02:44:18.341Z,17.93
2022-12-23T02:46:51.312Z,20.77
2022-12-23T02:49:25.792Z,18.97
2022-12-23T02:51:57.767Z,20.33
2022-12-23T02:54:30.728Z,16.33
2022-12-23T02:57:01.453Z,16.87
2022-12-23T02:59:34.212Z,18.90
2022-12-23T03:02:03.634Z,19.53
2022-12-23T03:04:31.801Z,27.73
2022-12-23T03:07:05.905Z,23.40
2022-12-23T03:09:46.641Z,25.73
2022-12-23T03:12:27.349Z,23.93
2022-12-23T03:15:10.727Z,26.10
2022-12-23T03:17:55.605Z,45.43
2022-12-23T03:20:28.405Z,25.90
2022-12-23T03:23:02.684Z,23.57
2022-12-23T03:25:34.998Z,33.67
2022-12-23T03:28:09.874Z,28.53
2022-12-23T03:30:39.810Z,19.50
2022-12-23T03:33:14.062Z,22.27
2022-12-23T03:35:44.978Z,23.43
2022-12-23T03:38:15.940Z,21.27
2022-12-23T03:40:46.895Z,17.77
2022-12-23T03:43:20.098Z,19.37
2022-12-23T03:45:54.648Z,18.57
2022-12-23T03:48:28.153Z,20.63
2022-12-23T03:51:00.461Z,24.30
2022-12-23T03:53:32.123Z,24.43
2022-12-23T03:56:03.111Z,22.00
2022-12-23T03:58:38.827Z,18.10
2022-12-23T04:01:13.543Z,21.17
2022-12-23T04:03:52.891Z,23.57
2022-12-23T04:06:21.323Z,24.13
2022-12-23T04:08:50.870Z,24.80
2022-12-23T04:11:19.043Z,21.57
2022-12-23T04:13:49.148Z,20.70
2022-12-23T04:16:17.705Z,19.60
2022-12-23T04:18:47.135Z,22.60
2022-12-23T04:21:15.046Z,19.87
2022-12-23T04:23:43.013Z,16.57
2022-12-23T04:26:10.966Z,18.53
2022-12-23T04:28:38.955Z,27.10
2022-12-23T04:31:06.933Z,29.43
2022-12-23T04:33:34.922Z,21.33
2022-12-23T04:36:04.303Z,25.00
2022-12-23T04:38:32.248Z,22.80
2022-12-23T04:41:00.178Z,20.30
2022-12-23T04:43:28.165Z,23.10
2022-12-23T04:45:56.294Z,20.10
2022-12-23T04:48:24.256Z,25.17
2022-12-23T04:50:52.526Z,19.53
2022-12-23T04:53:21.947Z,21.60
2022-12-23T04:55:51.540Z,25.40
2022-12-23T04:58:22.081Z,25.53
2022-12-23T05:00:50.169Z,28.97
2022-12-23T05:03:18.426Z,24.60
2022-12-23T05:05:46.508Z,29.10
2022-12-23T05:08:14.516Z,28.23
2022-12-23T05:10:45.652Z,25.00
2022-12-23T05:13:13.891Z,31.33
2022-12-23T05:15:44.299Z,28.87
2022-12-23T05:18:12.528Z,31.17
2022-12-23T05:20:40.476Z,32.73
2022-12-23T05:23:08.550Z,31.83
2022-12-23T05:25:38.236Z,33.90
2022-12-23T05:28:09.534Z,43.27
2022-12-23T05:30:37.544Z,36.07
2022-12-23T05:33:05.572Z,39.93
2022-12-23T05:35:33.561Z,34.73
2022-12-23T05:38:02.621Z,36.27
2022-12-23T05:40:33.992Z,37.93
2022-12-23T05:43:02.172Z,36.33
2022-12-23T05:45:31.542Z,34.73
2022-12-23T05:47:59.557Z,32.03
2022-12-23T05:50:27.520Z,39.17
2022-12-23T05:52:56.039Z,37.10
2022-12-23T05:55:24.288Z,30.63
2022-12-23T05:57:52.601Z,34.23
2022-12-23T06:00:21.836Z,35.70
2022-12-23T06:02:53.828Z,39.03
2022-12-23T06:05:23.163Z,38.70
2022-12-23T06:07:51.166Z,40.47
2022-12-23T06:10:19.494Z,35.93
2022-12-23T06:12:47.598Z,47.03
2022-12-23T06:15:15.761Z,47.63
2022-12-23T06:17:43.858Z,62.03
2022-12-23T06:20:19.911Z,76.00
2022-12-23T06:22:49.174Z,52.40
2022-12-23T06:25:17.326Z,49.07
2022-12-23T06:27:45.400Z,59.70
2022-12-23T06:30:13.797Z,56.10
2022-12-23T06:32:42.039Z,62.87
2022-12-23T06:35:12.102Z,45.63
2022-12-23T06:37:40.060Z,54.63
2022-12-23T06:40:09.074Z,41.97
2022-12-23T06:42:37.033Z,74.97
2022-12-23T06:45:05.554Z,79.53
2022-12-23T06:47:33.475Z,65.27
2022-12-23T06:50:01.431Z,84.60
2022-12-23T06:52:30.747Z,75.73
2022-12-23T06:54:58.695Z,66.83
2022-12-23T06:57:26.681Z,82.47
2022-12-23T06:59:54.643Z,84.27
2022-12-23T07:02:22.657Z,78.87
2022-12-23T07:04:50.745Z,96.73
2022-12-23T07:07:18.722Z,70.93
2022-12-23T07:09:48.085Z,93.60
2022-12-23T07:12:16.039Z,69.17
2022-12-23T07:14:43.985Z,93.77
2022-12-23T07:17:12.061Z,60.83
2022-12-23T07:19:41.635Z,67.17
2022-12-23T07:22:10.228Z,90.80
2022-12-23T07:24:38.443Z,85.00
2022-12-23T07:27:07.782Z,71.77
2022-12-23T07:29:35.708Z,99.63
2022-12-23T07:32:03.977Z,78.93
2022-12-23T07:34:31.986Z,114.80
2022-12-23T07:36:59.917Z,84.83
2022-12-23T07:39:27.860Z,78.07
2022-12-23T07:42:16.474Z,96.60
2022-12-23T07:44:45.148Z,76.30
2022-12-23T07:47:13.108Z,76.87
2022-12-23T07:49:41.121Z,67.37
2022-12-23T07:52:09.042Z,80.63
2022-12-23T07:54:37.015Z,73.23
2022-12-23T07:57:05.049Z,72.43
2022-12-23T07:59:33.016Z,90.43
2022-12-23T08:02:02.562Z,77.70
2022-12-23T08:04:30.733Z,91.20
2022-12-23T08:06:58.863Z,79.93
2022-12-23T08:09:26.748Z,77.40
2022-12-23T08:11:54.807Z,84.97
2022-12-23T08:14:23.232Z,67.07
2022-12-23T08:16:51.291Z,72.03
2022-12-23T08:19:20.614Z,70.50
2022-12-23T08:21:48.552Z,69.00
2022-12-23T08:24:16.654Z,73.53
2022-12-23T08:26:44.583Z,78.20
2022-12-23T08:29:12.532Z,79.77
2022-12-23T08:31:40.518Z,76.17
2022-12-23T08:34:08.604Z,68.73
2022-12-23T08:36:39.911Z,64.83
2022-12-23T08:39:09.854Z,68.20
2022-12-23T08:41:40.534Z,68.53
2022-12-23T08:44:08.710Z,63.23
2022-12-23T08:46:37.083Z,58.80
2022-12-23T08:49:05.644Z,64.87
2022-12-23T08:51:33.647Z,58.43
2022-12-23T08:54:03.198Z,55.53
2022-12-23T08:56:34.542Z,65.17
2022-12-23T08:59:03.111Z,64.93
2022-12-23T09:01:33.435Z,61.43
2022-12-23T09:04:04.672Z,68.57
2022-12-23T09:06:35.947Z,61.60
2022-12-23T09:09:05.433Z,61.27
2022-12-23T09:11:34.482Z,50.80
2022-12-23T09:14:03.343Z,54.20
2022-12-23T09:16:31.535Z,51.17
2022-12-23T09:18:59.813Z,67.43
2022-12-23T09:21:27.936Z,71.77
2022-12-23T09:23:55.924Z,58.60
2022-12-23T09:26:27.204Z,47.33
2022-12-23T09:28:57.881Z,56.87
2022-12-23T09:31:30.701Z,60.87
2022-12-23T09:34:02.226Z,60.03
2022-12-23T09:36:30.312Z,60.67
2022-12-23T09:38:59.578Z,62.60
2022-12-23T09:41:53.357Z,68.03
2022-12-23T09:44:41.653Z,54.97
2022-12-23T09:47:16.368Z,48.77
2022-12-23T09:49:50.155Z,57.90
2022-12-23T09:52:23.428Z,57.07
2022-12-23T09:54:54.755Z,73.30
2022-12-23T09:57:31.002Z,69.30
2022-12-23T10:00:07.961Z,65.43
2022-12-23T10:02:54.272Z,72.03
2022-12-23T10:05:31.352Z,65.60
2022-12-23T10:08:03.689Z,71.73
2022-12-23T10:10:37.725Z,62.53
2022-12-23T10:13:09.084Z,59.13
2022-12-23T10:15:39.937Z,67.07
2022-12-23T10:18:16.334Z,64.70
2022-12-23T10:20:48.848Z,56.43
2022-12-23T10:23:20.912Z,67.17
2022-12-23T10:25:52.565Z,72.80
2022-12-23T10:28:21.909Z,68.47
2022-12-23T10:33:57.310Z,59.47
2022-12-23T10:36:34.023Z,71.40
2022-12-23T10:39:06.821Z,53.87
2022-12-23T10:41:41.294Z,56.57
2022-12-23T10:44:36.883Z,59.17
2022-12-23T10:47:18.257Z,66.73
2022-12-23T10:49:56.000Z,58.90
2022-12-23T10:52:28.441Z,53.87
2022-12-23T10:54:56.348Z,51.40
2022-12-23T10:57:24.819Z,49.30
2022-12-23T10:59:54.436Z,49.40
2022-12-23T11:02:38.082Z,57.70
2022-12-23T11:05:13.817Z,49.53
2022-12-23T11:07:44.619Z,48.23
2022-12-23T11:10:19.719Z,50.87
2022-12-23T11:12:49.879Z,54.87
2022-12-23T11:15:31.303Z,42.83
2022-12-23T11:18:04.108Z,54.20
2022-12-23T11:20:32.508Z,52.47
2022-12-23T11:23:02.696Z,50.00
2022-12-23T11:25:34.080Z,40.30
2022-12-23T11:28:05.227Z,40.00
2022-12-23T11:30:38.882Z,38.23
2022-12-23T11:33:07.185Z,40.77
2022-12-23T11:35:37.532Z,41.90
2022-12-23T11:38:05.744Z,37.33
2022-12-23T11:40:37.039Z,38.07
2022-12-23T11:43:07.633Z,42.70
2022-12-23T11:45:39.102Z,39.10
2022-12-23T11:48:26.758Z,35.47
2022-12-23T11:51:00.292Z,34.20
2022-12-23T11:53:28.521Z,34.57
2022-12-23T11:56:03.800Z,38.30
2022-12-23T11:58:38.053Z,31.47
2022-12-23T12:01:16.175Z,33.60
2022-12-23T12:03:49.400Z,36.30
2022-12-23T12:06:19.902Z,29.97
2022-12-23T12:08:51.539Z,30.20
2022-12-23T12:11:23.359Z,34.57
2022-12-23T12:13:55.844Z,36.00
2022-12-23T12:16:40.887Z,36.97
2022-12-23T12:19:16.683Z,35.47
2022-12-23T12:21:46.971Z,28.57
2022-12-23T12:24:20.088Z,24.83
2022-12-23T12:26:52.556Z,25.37
2022-12-23T12:29:28.320Z,25.47
2022-12-23T12:32:00.348Z,28.80
2022-12-23T12:34:42.811Z,26.20
2022-12-23T12:37:22.931Z,30.40
2022-12-23T12:39:54.559Z,27.07
2022-12-23T12:42:28.719Z,23.07
2022-12-23T12:45:03.541Z,24.87
2022-12-23T12:47:57.088Z,28.03
2022-12-23T12:50:31.197Z,27.37
2022-12-23T12:53:04.979Z,32.30
2022-12-23T12:55:37.281Z,24.00
2022-12-23T12:58:05.318Z,27.23
2022-12-23T13:00:46.365Z,27.87
2022-12-23T13:03:31.148Z,22.90
2022-12-23T13:06:10.417Z,26.53
2022-12-23T13:08:56.617Z,31.20
2022-12-23T13:11:31.991Z,30.53
2022-12-23T13:14:06.691Z,29.90
2022-12-23T13:16:43.932Z,29.97
2022-12-23T13:19:26.613Z,25.70
2022-12-23T13:22:04.220Z,27.07
2022-12-23T13:24:40.442Z,25.27
2022-12-23T13:27:15.018Z,26.53
2022-12-23T13:30:02.828Z,30.60
2022-12-23T13:32:42.399Z,31.57
2022-12-23T13:35:24.256Z,37.97
2022-12-23T13:38:00.286Z,35.47
2022-12-23T13:40:39.011Z,33.67
2022-12-23T13:43:14.508Z,41.60
2022-12-23T13:45:43.642Z,30.90
2022-12-23T13:48:28.019Z,28.90
2022-12-23T13:51:01.465Z,26.50
2022-12-23T13:53:48.457Z,25.67
2022-12-23T13:56:24.750Z,20.50
2022-12-23T13:58:52.976Z,27.60
2022-12-23T14:01:32.508Z,30.13
2022-12-23T14:04:31.083Z,27.00
2022-12-23T14:07:02.263Z,27.87
2022-12-23T14:09:33.965Z,31.30
2022-12-23T14:12:22.395Z,28.07
2022-12-23T14:15:10.405Z,31.67
2022-12-23T14:17:46.501Z,31.27
2022-12-23T14:20:28.492Z,38.63
2022-12-23T14:23:06.973Z,29.20
2022-12-23T14:25:57.389Z,27.43
2022-12-23T14:28:41.094Z,26.83
2022-12-23T14:31:30.484Z,31.73
2022-12-23T14:34:05.272Z,31.90
2022-12-23T14:36:33.620Z,29.17
2022-12-23T14:39:34.411Z,30.97
2022-12-23T14:42:07.430Z,24.17
2022-12-23T14:44:46.359Z,32.93
2022-12-23T14:47:35.453Z,46.10
2022-12-23T14:50:35.062Z,35.43
2022-12-23T14:53:04.804Z,30.97
2022-12-23T14:55:46.079Z,35.87
2022-12-23T14:58:44.225Z,34.17
2022-12-23T15:01:14.256Z,30.13
2022-12-23T15:03:48.361Z,35.27
2022-12-23T15:06:21.672Z,35.57
2022-12-23T15:08:51.885Z,39.73
2022-12-23T15:11:28.353Z,39.37
2022-12-23T15:13:59.102Z,39.77
2022-12-23T15:16:33.226Z,42.37
2022-12-23T15:19:03.311Z,38.80
2022-12-23T15:21:34.184Z,35.17
2022-12-23T15:24:02.125Z,39.93
2022-12-23T15:26:33.447Z,39.53
2022-12-23T15:29:01.897Z,36.87
2022-12-23T15:31:33.079Z,33.53
2022-12-23T15:34:10.235Z,35.93
2022-12-23T15:36:44.853Z,34.37
2022-12-23T15:39:20.205Z,34.57
2022-12-23T15:41:49.851Z,42.27
2022-12-23T15:44:20.917Z,39.87
2022-12-23T15:46:50.394Z,39.73
2022-12-23T15:49:20.256Z,38.07
2022-12-23T15:52:08.522Z,36.90
2022-12-23T15:54:45.144Z,29.60
2022-12-23T15:57:19.146Z,35.60
2022-12-23T15:59:47.225Z,36.83
2022-12-23T16:05:10.137Z,31.07
2022-12-23T16:07:40.436Z,33.60
2022-12-23T16:10:15.064Z,36.17
2022-12-23T16:12:45.016Z,32.67
2022-12-23T16:15:27.020Z,36.17
2022-12-23T16:18:12.812Z,35.40
2022-12-23T16:20:43.078Z,42.77
2022-12-23T16:23:13.202Z,35.40
2022-12-23T16:25:45.470Z,29.40
2022-12-23T16:28:24.157Z,33.70
2022-12-23T16:30:55.030Z,31.97
2022-12-23T16:33:33.046Z,37.37
2022-12-23T16:36:16.593Z,36.20
2022-12-23T16:38:44.617Z,37.60
2022-12-23T16:41:12.911Z,38.43
2022-12-23T16:43:49.590Z,37.80
2022-12-23T16:46:22.141Z,36.57
2022-12-23T16:48:51.818Z,41.87
2022-12-23T16:51:21.901Z,41.13
2022-12-23T16:53:50.159Z,40.93
2022-12-23T16:56:19.869Z,48.80
2022-12-23T16:58:49.541Z,39.07
2022-12-23T17:01:21.917Z,43.60
2022-12-23T17:03:50.060Z,38.97
2022-12-23T17:06:18.847Z,42.17
2022-12-23T17:08:46.820Z,42.13
2022-12-23T17:11:16.633Z,43.70
2022-12-23T17:13:45.018Z,44.63
2022-12-23T17:16:19.261Z,51.17
2022-12-23T17:18:47.426Z,36.70
2022-12-23T17:21:20.952Z,47.80
2022-12-23T17:23:49.763Z,46.17
2022-12-23T17:26:17.787Z,40.43
2022-12-23T17:28:45.950Z,39.07
2022-12-23T17:31:20.692Z,42.87
2022-12-23T17:33:54.080Z,43.10
2022-12-23T17:36:22.483Z,35.57
2022-12-23T17:38:50.560Z,45.53
2022-12-23T17:41:23.991Z,43.80
2022-12-23T17:43:51.994Z,44.07
2022-12-23T17:46:22.382Z,41.03
2022-12-23T17:48:50.423Z,44.40
2022-12-23T17:51:20.241Z,36.90
2022-12-23T17:53:55.117Z,42.30
2022-12-23T17:56:27.772Z,44.93
2022-12-23T17:58:55.736Z,46.73
2022-12-23T18:01:26.914Z,41.53
2022-12-23T18:03:56.081Z,47.83
2022-12-23T18:06:25.307Z,43.70
2022-12-23T18:08:53.271Z,44.43
2022-12-23T18:11:24.477Z,45.80
2022-12-23T18:13:53.943Z,50.03
2022-12-23T18:16:22.004Z,41.57
2022-12-23T18:18:51.885Z,44.97
2022-12-23T18:21:23.522Z,42.80
2022-12-23T18:23:52.244Z,46.17
2022-12-23T18:26:20.420Z,42.83
2022-12-23T18:28:48.418Z,37.87
2022-12-23T18:31:18.219Z,39.10
2022-12-23T18:33:46.931Z,37.03
2022-12-23T18:36:23.806Z,43.10
2022-12-23T18:38:52.185Z,42.40
2022-12-23T18:41:20.286Z,39.37
2022-12-23T18:43:48.383Z,38.83
2022-12-23T18:46:16.914Z,40.20
2022-12-23T18:48:44.953Z,41.40
2022-12-23T18:51:15.589Z,37.33
2022-12-23T18:53:45.418Z,39.10
2022-12-23T18:56:14.891Z,39.80
2022-12-23T18:58:42.923Z,35.97
2022-12-23T19:01:13.043Z,33.83
2022-12-23T19:03:41.307Z,41.73
2022-12-23T19:06:10.920Z,41.43
2022-12-23T19:08:39.408Z,43.63
2022-12-23T19:11:12.732Z,40.90
2022-12-23T19:13:40.758Z,46.60
2022-12-23T19:16:09.025Z,39.90
2022-12-23T19:18:37.071Z,46.77
2022-12-23T19:21:05.852Z,40.00
2022-12-23T19:23:33.852Z,38.50
2022-12-23T19:26:02.436Z,43.53
2022-12-23T19:28:31.732Z,43.80
2022-12-23T19:30:59.788Z,37.03
2022-12-23T19:33:28.879Z,44.97
2022-12-23T19:35:56.902Z,53.73
2022-12-23T19:38:26.572Z,43.10
2022-12-23T19:40:58.320Z,49.63
2022-12-23T19:43:26.452Z,47.73
2022-12-23T19:45:59.681Z,44.47
2022-12-23T19:48:27.900Z,45.17
2022-12-23T19:50:59.234Z,42.77
2022-12-23T19:53:27.590Z,42.10
2022-12-23T19:55:59.555Z,43.33
2022-12-23T19:58:28.397Z,42.33
2022-12-23T20:01:09.009Z,41.40
2022-12-23T20:03:37.618Z,50.07
2022-12-23T20:06:06.941Z,46.27
2022-12-23T20:08:35.570Z,46.70
2022-12-23T20:11:05.222Z,54.10
2022-12-23T20:13:33.286Z,59.90
2022-12-23T20:16:01.584Z,76.93
2022-12-23T20:18:31.188Z,68.27
2022-12-23T20:20:59.618Z,62.10
2022-12-23T20:23:27.579Z,51.03
2022-12-23T20:25:55.685Z,50.47
2022-12-23T20:28:23.882Z,83.67
2022-12-23T20:31:00.257Z,53.17
2022-12-23T20:33:28.498Z,78.83
2022-12-23T20:35:57.830Z,59.53
2022-12-23T20:38:26.041Z,69.77
2022-12-23T20:40:54.156Z,103.33
2022-12-23T20:43:22.147Z,95.03
2022-12-23T20:45:52.301Z,76.67
2022-12-23T20:48:21.735Z,88.87
2022-12-23T20:50:50.331Z,104.73
2022-12-23T20:53:19.654Z,99.73
2022-12-23T20:55:47.606Z,66.90
2022-12-23T20:58:33.484Z,65.90
2022-12-23T21:01:10.109Z,69.57
2022-12-23T21:03:38.265Z,79.70
2022-12-23T21:06:07.603Z,59.63
2022-12-23T21:08:38.205Z,62.77
2022-12-23T21:11:07.759Z,59.10
2022-12-23T21:13:37.015Z,65.67
2022-12-23T21:16:06.391Z,167.97
2022-12-23T21:18:35.774Z,65.97
2022-12-23T21:21:05.953Z,64.37
2022-12-23T21:23:39.218Z,46.33
2022-12-23T21:26:09.358Z,114.10
2022-12-23T21:28:38.673Z,67.20
2022-12-23T21:31:07.460Z,70.30
2022-12-23T21:33:37.783Z,98.17
2022-12-23T21:36:06.771Z,62.70
2022-12-23T21:38:36.141Z,76.47
2022-12-23T21:41:07.593Z,90.83
2022-12-23T21:43:35.629Z,92.37
2022-12-23T21:46:06.433Z,135.23
2022-12-23T21:48:36.805Z,184.83
2022-12-23T21:51:06.703Z,70.93
2022-12-23T21:53:35.416Z,56.57
2022-12-23T21:56:06.704Z,63.80
2022-12-23T21:58:35.721Z,125.93
2022-12-23T22:01:08.322Z,91.43
2022-12-23T22:03:36.795Z,114.40
2022-12-23T22:06:10.204Z,111.73
2022-12-23T22:08:39.014Z,117.07
2022-12-23T22:11:10.113Z,117.50
2022-12-23T22:13:38.790Z,94.73
2022-12-23T22:16:10.734Z,80.67
2022-12-23T22:18:39.903Z,67.60
2022-12-23T22:21:09.150Z,72.33
2022-12-23T22:23:37.667Z,60.07
2022-12-23T22:26:07.050Z,64.27
2022-12-23T22:28:38.056Z,57.27
2022-12-23T22:31:08.385Z,45.50
2022-12-23T22:33:36.353Z,64.93
2022-12-23T22:36:04.402Z,86.57
2022-12-23T22:38:32.360Z,94.47
2022-12-23T22:41:00.319Z,114.60
2022-12-23T22:43:28.359Z,170.73
2022-12-23T22:45:59.221Z,78.33
2022-12-23T22:48:28.884Z,88.53
2022-12-23T22:51:03.100Z,91.37
2022-12-23T22:53:31.215Z,68.23
2022-12-23T22:55:59.626Z,51.73
2022-12-23T22:58:28.796Z,57.97
2022-12-23T23:00:58.814Z,64.40
2022-12-23T23:03:27.523Z,53.67
2022-12-23T23:06:00.803Z,68.10
2022-12-23T23:08:29.487Z,82.03
2022-12-23T23:10:58.644Z,62.93
2022-12-23T23:13:27.682Z,85.30
2022-12-23T23:15:57.172Z,78.33
2022-12-23T23:18:25.905Z,54.90
2022-12-23T23:20:54.370Z,43.40
2022-12-23T23:23:22.367Z,55.17
2022-12-23T23:25:50.340Z,57.63
2022-12-23T23:28:18.454Z,58.40
2022-12-23T23:30:46.402Z,64.13
2022-12-23T23:33:15.692Z,70.13
2022-12-23T23:35:43.859Z,125.93
2022-12-23T23:38:11.981Z,116.03
2022-12-23T23:40:40.006Z,89.33
2022-12-23T23:43:08.386Z,103.13
2022-12-23T23:45:36.767Z,81.27
2022-12-23T23:48:05.076Z,84.50
2022-12-23T23:50:34.360Z,86.27
2022-12-23T23:53:02.329Z,72.23
2022-12-23T23:55:30.312Z,82.93
2022-12-23T23:57:58.531Z,88.97
